Sandusky, Michigan
Current Conditions -  °F | °C
As of 12:58 PM on Saturday 25 Oct 2014 (Local Time) from KBAX Reporting Station
Scattered Clouds Scattered Clouds  
Wind Chill: 61°   Ceiling: Unl
Heat Index: 61°   Visibility: 10mi
Dew Point: 52°   Wind: 15mph
Humidity: 72%   Direction: 280°W
Pressure: 29.72"   Gusts: 26mph
Location:  43.42°N, 82.83°W
Report Text: KBAX 251658Z AUTO 28013G23KT 10SM SCT020 16/11 A2972 RMK AO2 T01610111
Loading
Personal Weather Stations






























Interactive Weather Map
Tropical Storm Tracking
New forecast layout! Learn more

10-Day Weather Forecast

Advertisements
Track Severe Weather on mobile